Time;durP1;ratioP1;P1;durP2;ratioP2;P2;SDS_P1;SDS_P2;PMS_P1;PMS_P2;Temp;Humidity;BMP_temperature;BMP_pressure;BME280_temperature;BME280_humidity;BME280_pressure;Samples;Min_cycle;Max_cycle;Signal;HPM_P1;HPM_P2
2023/04/15 00:01:54;;;;;;;;;;;;;;;;;;5112663;28;1322;-43
2023/04/15 00:04:23;;;;;;;;;;;;;;;;;;5112415;28;1962;-43
2023/04/15 00:06:52;;;;;;;;;;;;;;;;;;5112516;28;1654;-48
2023/04/15 00:09:19;;;;;;;;;;;;;;;;;;5112303;28;1535;-47
2023/04/15 00:11:46;;;;;;;;;;;;;;;;;;5112439;28;1806;-45
2023/04/15 00:14:14;;;;;;;;;;;;;;;;;;5111393;28;1775;-47
2023/04/15 00:16:41;;;;;;;;;;;;;;;;;;5112515;28;2169;-44
2023/04/15 00:19:09;;;;;;;;;;;;;;;;;;5112165;28;1907;-45
2023/04/15 00:21:36;;;;;;;;;;;;;;;;;;5111092;28;1958;-45
2023/04/15 00:24:03;;;;;;;;;;;;;;;;;;5112261;28;2287;-42
2023/04/15 00:26:30;;;;;;;;;;;;;;;;;;5112102;28;2157;-46
2023/04/15 00:28:58;;;;;;;;;;;;;;;;;;5112010;28;2022;-45
2023/04/15 00:31:26;;;;;;;;;;;;;;;;;;5110773;28;1922;-44
2023/04/15 00:33:53;;;;;;;;;;;;;;;;;;5112112;28;1923;-44
2023/04/15 00:36:21;;;;;;;;;;;;;;;;;;5110575;28;1972;-45
2023/04/15 00:38:49;;;;;;;;;;;;;;;;;;5110487;28;2002;-44
2023/04/15 00:41:18;;;;;;;;;;;;;;;;;;5112004;28;2135;-44
2023/04/15 00:43:47;;;;;;;;;;;;;;;;;;5111874;28;1645;-44
2023/04/15 00:46:16;;;;;;;;;;;;;;;;;;5111615;28;2019;-45
2023/04/15 00:48:43;;;;;;;;;;;;;;;;;;5130537;27;1755;-45
2023/04/15 00:51:11;;;;;;;;;;;;;;;;;;5130770;27;1882;-45
2023/04/15 00:53:38;;;;;;;;;;;;;;;;;;5131237;27;1831;-44
2023/04/15 00:56:06;;;;;;;;;;;;;;;;;;5130936;27;1461;-41
2023/04/15 00:58:33;;;;;;;;;;;;;;;;;;5132085;27;1982;-45
2023/04/15 01:01:01;;;;;;;;;;;;;;;;;;5132182;27;1919;-44
2023/04/15 01:03:28;;;;;;;;;;;;;;;;;;5132137;27;1852;-44
2023/04/15 01:05:59;;;;;;;;;;;;;;;;;;5132306;27;1844;-46
2023/04/15 01:08:30;;;;;;;;;;;;;;;;;;5132065;27;1752;-55
2023/04/15 01:11:00;;;;;;;;;;;;;;;;;;5132183;27;1648;-51
2023/04/15 01:13:29;;;;;;;;;;;;;;;;;;5132408;28;2052;-45
2023/04/15 01:15:56;;;;;;;;;;;;;;;;;;5131956;27;2076;-61
2023/04/15 01:18:24;;;;;;;;;;;;;;;;;;5131911;27;1242;-43
2023/04/15 01:20:51;;;;;;;;;;;;;;;;;;5132042;27;2096;-52
2023/04/15 01:23:24;;;;;;;;;;;;;;;;;;5131724;28;1747;-44
2023/04/15 01:25:52;;;;;;;;;;;;;;;;;;5133423;27;2000;-45
2023/04/15 01:28:19;;;;;;;;;;;;;;;;;;5117721;27;2024;-44
2023/04/15 01:30:47;;;;;;;;;;;;;;;;;;5136266;27;2098;-47
2023/04/15 01:33:14;;;;;;;;;;;;;;;;;;5135928;27;1655;-44
2023/04/15 01:35:43;;;;;;;;;;;;;;;;;;5134851;27;1694;-45
2023/04/15 01:38:10;;;;;;;;;;;;;;;;;;5136410;27;1502;-47
2023/04/15 01:40:38;;;;;;;;;;;;;;;;;;5136022;27;2176;-47
2023/04/15 01:43:05;;;;;;;;;;;;;;;;;;5135756;27;2090;-47
2023/04/15 01:45:32;;;;;;;;;;;;;;;;;;5135581;27;2155;-46
2023/04/15 01:48:05;;;;;;;;;;;;;;;;;;5130747;27;1730;-45
2023/04/15 01:50:32;;;;;;;;;;;;;;;;;;5115144;28;1745;-45
2023/04/15 01:52:59;;;;;;;;;;;;;;;;;;5115060;28;2168;-45
2023/04/15 01:55:26;;;;;;;;;;;;;;;;;;5114861;28;1680;-43
2023/04/15 01:57:53;;;;;;;;;;;;;;;;;;5115070;28;1823;-48
2023/04/15 02:00:21;;;;;;;;;;;;;;;;;;5113621;28;1980;-45
2023/04/15 02:02:50;;;;;;;;;;;;;;;;;;5115069;28;1862;-44
2023/04/15 02:05:18;;;;;;;;;;;;;;;;;;5113415;28;2236;-47
2023/04/15 02:07:47;;;;;;;;;;;;;;;;;;5114982;28;1648;-46
2023/04/15 02:10:15;;;;;;;;;;;;;;;;;;5114694;28;1540;-47
2023/04/15 02:12:42;;;;;;;;;;;;;;;;;;5113706;28;1996;-45
2023/04/15 02:15:10;;;;;;;;;;;;;;;;;;5113547;28;1295;-47
2023/04/15 02:17:37;;;;;;;;;;;;;;;;;;5127071;27;2236;-54
2023/04/15 02:20:07;;;;;;;;;;;;;;;;;;5133750;27;1907;-49
2023/04/15 02:22:35;;;;;;;;;;;;;;;;;;5135252;27;1889;-45
2023/04/15 02:25:02;;;;;;;;;;;;;;;;;;5135352;27;1903;-46
2023/04/15 02:27:34;;;;;;;;;;;;;;;;;;5133683;27;1965;-44
2023/04/15 02:30:02;;;;;;;;;;;;;;;;;;5135039;27;1794;-44
2023/04/15 02:32:29;;;;;;;;;;;;;;;;;;5133611;27;1798;-43
2023/04/15 02:35:00;;;;;;;;;;;;;;;;;;5134758;27;2056;-44
2023/04/15 02:37:30;;;;;;;;;;;;;;;;;;5133782;27;2001;-44
2023/04/15 02:39:59;;;;;;;;;;;;;;;;;;5133311;27;2265;-44
2023/04/15 02:42:29;;;;;;;;;;;;;;;;;;5133572;27;1978;-45
2023/04/15 02:44:59;;;;;;;;;;;;;;;;;;5133373;27;1573;-44
2023/04/15 02:47:30;;;;;;;;;;;;;;;;;;5129429;27;2010;-46
2023/04/15 02:50:00;;;;;;;;;;;;;;;;;;5112682;28;2076;-43
2023/04/15 02:52:27;;;;;;;;;;;;;;;;;;5114018;28;1611;-43
2023/04/15 02:55:01;;;;;;;;;;;;;;;;;;5112528;28;2219;-51
2023/04/15 02:57:28;;;;;;;;;;;;;;;;;;5113790;28;1825;-44
2023/04/15 02:59:59;;;;;;;;;;;;;;;;;;5112288;28;1906;-50
2023/04/15 03:02:32;;;;;;;;;;;;;;;;;;5112536;28;1887;-45
2023/04/15 03:05:00;;;;;;;;;;;;;;;;;;5112593;28;1223;-44
2023/04/15 03:07:28;;;;;;;;;;;;;;;;;;5113495;28;1622;-44
2023/04/15 03:09:55;;;;;;;;;;;;;;;;;;5113725;28;1861;-54
2023/04/15 03:12:23;;;;;;;;;;;;;;;;;;5112181;28;2134;-44
2023/04/15 03:14:52;;;;;;;;;;;;;;;;;;5111985;28;1837;-44
2023/04/15 03:17:25;;;;;;;;;;;;;;;;;;5112179;28;2158;-45
2023/04/15 03:19:52;;;;;;;;;;;;;;;;;;5111903;28;2263;-44
2023/04/15 03:22:20;;;;;;;;;;;;;;;;;;5112047;28;2077;-46
2023/04/15 03:24:47;;;;;;;;;;;;;;;;;;5112190;28;2273;-48
2023/04/15 03:27:15;;;;;;;;;;;;;;;;;;5130358;27;2027;-43
2023/04/15 03:29:42;;;;;;;;;;;;;;;;;;5133794;27;1639;-45
2023/04/15 03:32:11;;;;;;;;;;;;;;;;;;5132324;27;1990;-51
2023/04/15 03:34:38;;;;;;;;;;;;;;;;;;5133718;27;2265;-47
2023/04/15 03:37:06;;;;;;;;;;;;;;;;;;5133735;27;2007;-45
2023/04/15 03:39:33;;;;;;;;;;;;;;;;;;5133551;27;1905;-46
2023/04/15 03:42:01;;;;;;;;;;;;;;;;;;5133702;27;1216;-44
2023/04/15 03:44:28;;;;;;;;;;;;;;;;;;5133382;27;2068;-45
2023/04/15 03:46:55;;;;;;;;;;;;;;;;;;5128251;27;1865;-51
2023/04/15 03:49:23;;;;;;;;;;;;;;;;;;5112799;28;1992;-44
2023/04/15 03:51:50;;;;;;;;;;;;;;;;;;5113019;28;2078;-45
2023/04/15 03:54:17;;;;;;;;;;;;;;;;;;5112917;28;1796;-44
2023/04/15 03:56:44;;;;;;;;;;;;;;;;;;5112743;28;2077;-44
2023/04/15 03:59:11;;;;;;;;;;;;;;;;;;5112986;28;1880;-48
2023/04/15 04:01:38;;;;;;;;;;;;;;;;;;5112554;28;1968;-57
2023/04/15 04:04:06;;;;;;;;;;;;;;;;;;5112586;28;1905;-47
2023/04/15 04:06:33;;;;;;;;;;;;;;;;;;5112537;28;1834;-45
2023/04/15 04:09:00;;;;;;;;;;;;;;;;;;5112221;28;1879;-45
2023/04/15 04:11:28;;;;;;;;;;;;;;;;;;5112406;28;1581;-46
2023/04/15 04:13:55;;;;;;;;;;;;;;;;;;5112428;28;2013;-49
2023/04/15 04:16:22;;;;;;;;;;;;;;;;;;5112422;28;1748;-44
2023/04/15 04:18:49;;;;;;;;;;;;;;;;;;5112510;28;1707;-48
2023/04/15 04:21:17;;;;;;;;;;;;;;;;;;5112255;28;2179;-44
2023/04/15 04:23:44;;;;;;;;;;;;;;;;;;5112373;28;2088;-45
2023/04/15 04:26:11;;;;;;;;;;;;;;;;;;5110954;28;1799;-44
2023/04/15 04:28:39;;;;;;;;;;;;;;;;;;5112354;28;1857;-50
2023/04/15 04:31:06;;;;;;;;;;;;;;;;;;5112231;28;1566;-63
2023/04/15 04:33:34;;;;;;;;;;;;;;;;;;5111870;28;1892;-66
2023/04/15 04:36:01;;;;;;;;;;;;;;;;;;5111985;28;1892;-44
2023/04/15 04:38:28;;;;;;;;;;;;;;;;;;5111982;28;1896;-44
2023/04/15 04:40:55;;;;;;;;;;;;;;;;;;5111995;28;1911;-45
2023/04/15 04:43:22;;;;;;;;;;;;;;;;;;5112231;28;1655;-44
2023/04/15 04:45:50;;;;;;;;;;;;;;;;;;5110666;28;2265;-44
2023/04/15 04:48:17;;;;;;;;;;;;;;;;;;5128165;27;1830;-45
2023/04/15 04:50:45;;;;;;;;;;;;;;;;;;5132143;27;1672;-44
2023/04/15 04:53:13;;;;;;;;;;;;;;;;;;5132309;27;2263;-45
2023/04/15 04:55:41;;;;;;;;;;;;;;;;;;5132283;27;1630;-44
2023/04/15 04:58:08;;;;;;;;;;;;;;;;;;5132081;27;1842;-48
2023/04/15 05:00:36;;;;;;;;;;;;;;;;;;5131733;27;1986;-44
2023/04/15 05:03:04;;;;;;;;;;;;;;;;;;5132025;27;1995;-59
2023/04/15 05:05:31;;;;;;;;;;;;;;;;;;5132379;27;1971;-49
2023/04/15 05:07:58;;;;;;;;;;;;;;;;;;5132180;27;1821;-44
2023/04/15 05:10:25;;;;;;;;;;;;;;;;;;5130364;27;2173;-44
2023/04/15 05:12:52;;;;;;;;;;;;;;;;;;5132277;27;2236;-59
2023/04/15 05:15:19;;;;;;;;;;;;;;;;;;5132090;27;1809;-43
2023/04/15 05:17:47;;;;;;;;;;;;;;;;;;5132070;27;1800;-56
2023/04/15 05:20:14;;;;;;;;;;;;;;;;;;5131834;28;1902;-44
2023/04/15 05:22:42;;;;;;;;;;;;;;;;;;5131964;27;1695;-44
2023/04/15 05:25:09;;;;;;;;;;;;;;;;;;5131976;27;1593;-47
2023/04/15 05:27:36;;;;;;;;;;;;;;;;;;5131853;27;1564;-43
2023/04/15 05:30:03;;;;;;;;;;;;;;;;;;5131888;27;1951;-48
2023/04/15 05:32:30;;;;;;;;;;;;;;;;;;5132119;27;1930;-43
2023/04/15 05:34:57;;;;;;;;;;;;;;;;;;5131783;27;1987;-44
2023/04/15 05:37:25;;;;;;;;;;;;;;;;;;5132101;27;2107;-44
2023/04/15 05:39:52;;;;;;;;;;;;;;;;;;5132183;27;1915;-50
2023/04/15 05:42:19;;;;;;;;;;;;;;;;;;5131802;27;1913;-44
2023/04/15 05:44:46;;;;;;;;;;;;;;;;;;5131769;27;1975;-47
2023/04/15 05:47:13;;;;;;;;;;;;;;;;;;5123888;27;2138;-44
2023/04/15 05:49:40;;;;;;;;;;;;;;;;;;5111281;28;1769;-44
2023/04/15 05:52:08;;;;;;;;;;;;;;;;;;5111322;28;1938;-45
2023/04/15 05:54:35;;;;;;;;;;;;;;;;;;5110879;28;2170;-48
2023/04/15 05:57:02;;;;;;;;;;;;;;;;;;5111055;28;1457;-45
2023/04/15 05:59:29;;;;;;;;;;;;;;;;;;5110894;28;1766;-45
2023/04/15 06:01:57;;;;;;;;;;;;;;;;;;5111229;28;1906;-50
2023/04/15 06:04:24;;;;;;;;;;;;;;;;;;5111257;28;1756;-45
2023/04/15 06:06:51;;;;;;;;;;;;;;;;;;5111019;28;1975;-44
2023/04/15 06:09:18;;;;;;;;;;;;;;;;;;5110967;28;1737;-44
2023/04/15 06:11:46;;;;;;;;;;;;;;;;;;5110686;28;1913;-46
2023/04/15 06:14:13;;;;;;;;;;;;;;;;;;5114502;28;2380;-52
2023/04/15 06:16:40;;;;;;;;;;;;;;;;;;5114445;28;1923;-50
2023/04/15 06:19:07;;;;;;;;;;;;;;;;;;5114493;28;2218;-44
2023/04/15 06:21:35;;;;;;;;;;;;;;;;;;5114314;28;1912;-42
2023/04/15 06:24:02;;;;;;;;;;;;;;;;;;5114373;27;2061;-45
2023/04/15 06:26:30;;;;;;;;;;;;;;;;;;5114532;28;1796;-44
2023/04/15 06:28:57;;;;;;;;;;;;;;;;;;5114784;28;1602;-46
2023/04/15 06:31:24;;;;;;;;;;;;;;;;;;5114027;28;1695;-48
2023/04/15 06:33:51;;;;;;;;;;;;;;;;;;5114053;28;2079;-45
2023/04/15 06:36:18;;;;;;;;;;;;;;;;;;5114220;28;2028;-44
2023/04/15 06:38:45;;;;;;;;;;;;;;;;;;5114115;28;1949;-60
2023/04/15 06:41:13;;;;;;;;;;;;;;;;;;5114214;28;2069;-45
2023/04/15 06:43:40;;;;;;;;;;;;;;;;;;5114163;28;1889;-44
2023/04/15 06:46:07;;;;;;;;;;;;;;;;;;5114032;28;2480;-65
2023/04/15 06:48:36;;;;;;;;;;;;;;;;;;5113470;28;2178;-44
2023/04/15 06:51:03;;;;;;;;;;;;;;;;;;5113828;28;2024;-47
2023/04/15 06:53:30;;;;;;;;;;;;;;;;;;5114003;28;1854;-45
2023/04/15 06:55:57;;;;;;;;;;;;;;;;;;5113753;28;2017;-43
2023/04/15 06:58:24;;;;;;;;;;;;;;;;;;5113894;28;1771;-45
2023/04/15 07:00:52;;;;;;;;;;;;;;;;;;5113612;28;1902;-52
2023/04/15 07:03:19;;;;;;;;;;;;;;;;;;5113817;28;1782;-50
2023/04/15 07:05:46;;;;;;;;;;;;;;;;;;5113646;28;1626;-59
2023/04/15 07:08:13;;;;;;;;;;;;;;;;;;5113421;28;1558;-45
2023/04/15 07:10:40;;;;;;;;;;;;;;;;;;5113674;28;1663;-45
2023/04/15 07:13:07;;;;;;;;;;;;;;;;;;5113256;28;1889;-45
2023/04/15 07:15:35;;;;;;;;;;;;;;;;;;5113499;28;1816;-44
2023/04/15 07:18:02;;;;;;;;;;;;;;;;;;5113521;28;1699;-42
2023/04/15 07:20:30;;;;;;;;;;;;;;;;;;5113222;28;2120;-44
2023/04/15 07:22:57;;;;;;;;;;;;;;;;;;5113089;28;1863;-44
2023/04/15 07:25:24;;;;;;;;;;;;;;;;;;5113165;28;1701;-44
2023/04/15 07:27:52;;;;;;;;;;;;;;;;;;5113476;28;1994;-44
2023/04/15 07:30:19;;;;;;;;;;;;;;;;;;5113193;28;1563;-42
2023/04/15 07:32:46;;;;;;;;;;;;;;;;;;5113005;28;2020;-44
2023/04/15 07:35:13;;;;;;;;;;;;;;;;;;5113060;28;1975;-41
2023/04/15 07:37:42;;;;;;;;;;;;;;;;;;5113058;28;1722;-47
2023/04/15 07:40:12;;;;;;;;;;;;;;;;;;5113017;28;1580;-42
2023/04/15 07:42:41;;;;;;;;;;;;;;;;;;5112892;28;1938;-45
2023/04/15 07:45:08;;;;;;;;;;;;;;;;;;5112800;28;1667;-63
2023/04/15 07:47:39;;;;;;;;;;;;;;;;;;5123533;27;1584;-52
2023/04/15 07:50:08;;;;;;;;;;;;;;;;;;5133139;27;2153;-42
2023/04/15 07:52:38;;;;;;;;;;;;;;;;;;5133470;27;1827;-42
2023/04/15 07:55:07;;;;;;;;;;;;;;;;;;5133260;27;1808;-42
2023/04/15 07:57:35;;;;;;;;;;;;;;;;;;5133510;27;1924;-43
2023/04/15 08:00:06;;;;;;;;;;;;;;;;;;5133177;27;1686;-43
2023/04/15 08:02:40;;;;;;;;;;;;;;;;;;5132895;27;1979;-53
2023/04/15 08:05:08;;;;;;;;;;;;;;;;;;5130370;27;1803;-41
2023/04/15 08:07:36;;;;;;;;;;;;;;;;;;5109954;27;1617;-42
2023/04/15 08:10:04;;;;;;;;;;;;;;;;;;5112479;28;1376;-41
2023/04/15 08:12:31;;;;;;;;;;;;;;;;;;5111898;28;1666;-42
2023/04/15 08:14:59;;;;;;;;;;;;;;;;;;5112080;28;1746;-44
2023/04/15 08:17:27;;;;;;;;;;;;;;;;;;5112173;28;1504;-44
2023/04/15 08:19:54;;;;;;;;;;;;;;;;;;5112281;28;1709;-43
2023/04/15 08:22:21;;;;;;;;;;;;;;;;;;5111913;28;1996;-53
2023/04/15 08:24:51;;;;;;;;;;;;;;;;;;5112182;28;2503;-42
2023/04/15 08:27:18;;;;;;;;;;;;;;;;;;5111886;28;2187;-42
2023/04/15 08:29:46;;;;;;;;;;;;;;;;;;5112252;28;2075;-43
2023/04/15 08:32:13;;;;;;;;;;;;;;;;;;5111925;28;1840;-54
2023/04/15 08:34:41;;;;;;;;;;;;;;;;;;5111296;28;2075;-53
2023/04/15 08:37:08;;;;;;;;;;;;;;;;;;5111783;28;1820;-43
2023/04/15 08:39:37;;;;;;;;;;;;;;;;;;5111939;28;1831;-50
2023/04/15 08:42:10;;;;;;;;;;;;;;;;;;5111964;28;1962;-50
2023/04/15 08:44:39;;;;;;;;;;;;;;;;;;5111857;28;1932;-55
2023/04/15 08:47:07;;;;;;;;;;;;;;;;;;5111148;28;2183;-42
2023/04/15 08:49:38;;;;;;;;;;;;;;;;;;5112000;28;1643;-42
2023/04/15 08:52:06;;;;;;;;;;;;;;;;;;5111695;28;1855;-42
2023/04/15 08:54:33;;;;;;;;;;;;;;;;;;5111695;28;1661;-41
2023/04/15 08:57:04;;;;;;;;;;;;;;;;;;5111538;28;2134;-41
2023/04/15 08:59:31;;;;;;;;;;;;;;;;;;5111741;28;1615;-42
2023/04/15 09:01:58;;;;;;;;;;;;;;;;;;5111634;28;1907;-42
2023/04/15 09:04:27;;;;;;;;;;;;;;;;;;5111618;28;2033;-44
2023/04/15 09:06:56;;;;;;;;;;;;;;;;;;5111617;28;1968;-44
2023/04/15 09:09:23;;;;;;;;;;;;;;;;;;5111553;28;2013;-41
2023/04/15 09:11:50;;;;;;;;;;;;;;;;;;5111672;28;1826;-43
2023/04/15 09:14:17;;;;;;;;;;;;;;;;;;5111385;28;1966;-42
2023/04/15 09:16:57;;;;;;;;;;;;;;;;;;5111457;28;1771;-50
2023/04/15 09:19:25;;;;;;;;;;;;;;;;;;5111228;28;1786;-41
2023/04/15 09:21:57;;;;;;;;;;;;;;;;;;5110044;28;2003;-41
2023/04/15 09:24:25;;;;;;;;;;;;;;;;;;5111425;28;2127;-44
2023/04/15 09:26:54;;;;;;;;;;;;;;;;;;5111300;28;2296;-41
2023/04/15 09:29:23;;;;;;;;;;;;;;;;;;5111360;28;1855;-54
2023/04/15 09:31:50;;;;;;;;;;;;;;;;;;5111120;28;1814;-46
2023/04/15 09:34:17;;;;;;;;;;;;;;;;;;5111482;28;1816;-41
2023/04/15 09:36:50;;;;;;;;;;;;;;;;;;5111179;28;2009;-48
2023/04/15 09:39:20;;;;;;;;;;;;;;;;;;5111336;28;1969;-54
2023/04/15 09:42:02;;;;;;;;;;;;;;;;;;5111146;28;2141;-43
2023/04/15 09:44:30;;;;;;;;;;;;;;;;;;5111180;28;2181;-51
2023/04/15 09:46:57;;;;;;;;;;;;;;;;;;5118253;27;1945;-40
2023/04/15 09:49:25;;;;;;;;;;;;;;;;;;5135610;27;1873;-43
2023/04/15 09:51:57;;;;;;;;;;;;;;;;;;5135618;27;1442;-41
2023/04/15 09:54:35;;;;;;;;;;;;;;;;;;5135520;27;1807;-41
2023/04/15 09:57:06;;;;;;;;;;;;;;;;;;5135479;27;1987;-40
2023/04/15 09:59:33;;;;;;;;;;;;;;;;;;5125228;27;1985;-58
2023/04/15 10:02:03;;;;;;;;;;;;;;;;;;5114950;27;2003;-43
2023/04/15 10:04:32;;;;;;;;;;;;;;;;;;5114863;28;1998;-40
2023/04/15 10:06:59;;;;;;;;;;;;;;;;;;5115124;27;1501;-39
2023/04/15 10:09:27;;;;;;;;;;;;;;;;;;5114536;28;1840;-40
2023/04/15 10:11:54;;;;;;;;;;;;;;;;;;5114905;28;1798;-48
2023/04/15 10:14:23;;;;;;;;;;;;;;;;;;5114850;28;1964;-41
2023/04/15 10:16:52;;;;;;;;;;;;;;;;;;5114601;28;1972;-55
2023/04/15 10:19:25;;;;;;;;;;;;;;;;;;5114684;28;1617;-41
2023/04/15 10:21:53;;;;;;;;;;;;;;;;;;5114263;28;2378;-41
2023/04/15 10:24:21;;;;;;;;;;;;;;;;;;5114611;28;1815;-40
2023/04/15 10:26:50;;;;;;;;;;;;;;;;;;5114369;28;2486;-52
2023/04/15 10:29:17;;;;;;;;;;;;;;;;;;5114424;28;1970;-43
2023/04/15 10:31:45;;;;;;;;;;;;;;;;;;5114505;27;1909;-56
2023/04/15 10:34:12;;;;;;;;;;;;;;;;;;5114298;28;1881;-50
2023/04/15 10:36:39;;;;;;;;;;;;;;;;;;5114205;28;1864;-53
2023/04/15 10:39:25;;;;;;;;;;;;;;;;;;5114281;28;1926;-47
2023/04/15 10:42:07;;;;;;;;;;;;;;;;;;5114011;28;1951;-40
2023/04/15 10:44:50;;;;;;;;;;;;;;;;;;5114299;28;2111;-46
2023/04/15 10:47:19;;;;;;;;;;;;;;;;;;5121895;27;1702;-47
2023/04/15 10:49:47;;;;;;;;;;;;;;;;;;5134736;27;1719;-41
2023/04/15 10:52:16;;;;;;;;;;;;;;;;;;5134852;27;1706;-40
2023/04/15 10:54:44;;;;;;;;;;;;;;;;;;5134390;27;2134;-53
2023/04/15 10:57:16;;;;;;;;;;;;;;;;;;5134166;27;2106;-39
2023/04/15 10:59:59;;;;;;;;;;;;;;;;;;5133493;27;1616;-40
2023/04/15 11:02:43;;;;;;;;;;;;;;;;;;5134315;27;1915;-40
2023/04/15 11:05:11;;;;;;;;;;;;;;;;;;5134357;27;2217;-40
2023/04/15 11:07:39;;;;;;;;;;;;;;;;;;5134063;27;1623;-40
2023/04/15 11:10:13;;;;;;;;;;;;;;;;;;5133960;27;2125;-38
2023/04/15 11:12:40;;;;;;;;;;;;;;;;;;5134156;27;1518;-39
2023/04/15 11:15:26;;;;;;;;;;;;;;;;;;5134101;27;2294;-39
2023/04/15 11:17:54;;;;;;;;;;;;;;;;;;5133973;27;1888;-39
2023/04/15 11:20:21;;;;;;;;;;;;;;;;;;5133825;27;1858;-41
2023/04/15 11:22:52;;;;;;;;;;;;;;;;;;5133924;27;2057;-39
2023/04/15 11:25:27;;;;;;;;;;;;;;;;;;5133814;27;1871;-39
2023/04/15 11:27:54;;;;;;;;;;;;;;;;;;5133743;27;1724;-40
2023/04/15 11:30:25;;;;;;;;;;;;;;;;;;5133768;27;1994;-40
2023/04/15 11:33:13;;;;;;;;;;;;;;;;;;5133739;27;1818;-39
2023/04/15 11:35:43;;;;;;;;;;;;;;;;;;5133626;27;2015;-40
2023/04/15 11:38:11;;;;;;;;;;;;;;;;;;5133535;27;2045;-39
2023/04/15 11:40:38;;;;;;;;;;;;;;;;;;5133595;27;1981;-39
2023/04/15 11:43:09;;;;;;;;;;;;;;;;;;5133155;27;1980;-40
2023/04/15 11:45:37;;;;;;;;;;;;;;;;;;5133469;27;1926;-40
2023/04/15 11:48:07;;;;;;;;;;;;;;;;;;5118488;27;1975;-39
2023/04/15 11:50:35;;;;;;;;;;;;;;;;;;5112834;28;1805;-39
2023/04/15 11:53:03;;;;;;;;;;;;;;;;;;5112712;28;1242;-40
2023/04/15 11:55:59;;;;;;;;;;;;;;;;;;5113116;28;1866;-39
2023/04/15 11:58:28;;;;;;;;;;;;;;;;;;5111011;28;2413;-38
2023/04/15 12:00:59;;;;;;;;;;;;;;;;;;5112703;28;2280;-39
2023/04/15 12:03:28;;;;;;;;;;;;;;;;;;5112429;28;1914;-39
2023/04/15 12:06:18;;;;;;;;;;;;;;;;;;5112365;28;1973;-39
2023/04/15 12:08:49;;;;;;;;;;;;;;;;;;5112320;28;2020;-55
2023/04/15 12:11:16;;;;;;;;;;;;;;;;;;5117993;27;1583;-40
2023/04/15 12:13:46;;;;;;;;;;;;;;;;;;5132851;27;1807;-52
2023/04/15 12:16:20;;;;;;;;;;;;;;;;;;5132705;27;2023;-40
2023/04/15 12:18:57;;;;;;;;;;;;;;;;;;5133126;27;1815;-40
2023/04/15 12:21:26;;;;;;;;;;;;;;;;;;5132592;27;1723;-39
2023/04/15 12:23:54;;;;;;;;;;;;;;;;;;5132573;27;1975;-39
2023/04/15 12:26:32;;;;;;;;;;;;;;;;;;5132852;27;2425;-39
2023/04/15 12:29:00;;;;;;;;;;;;;;;;;;5132710;27;1842;-39
2023/04/15 12:31:27;;;;;;;;;;;;;;;;;;5132764;27;2020;-40
2023/04/15 12:33:55;;;;;;;;;;;;;;;;;;5132537;27;2239;-39
2023/04/15 12:36:22;;;;;;;;;;;;;;;;;;5132810;27;1537;-39
2023/04/15 12:38:50;;;;;;;;;;;;;;;;;;5132662;27;1653;-39
2023/04/15 12:41:17;;;;;;;;;;;;;;;;;;5132493;27;1796;-54
2023/04/15 12:43:45;;;;;;;;;;;;;;;;;;5132454;27;1914;-39
2023/04/15 12:46:12;;;;;;;;;;;;;;;;;;5130339;27;2002;-48
2023/04/15 12:48:40;;;;;;;;;;;;;;;;;;5111815;28;1977;-40
2023/04/15 12:51:07;;;;;;;;;;;;;;;;;;5111753;28;1966;-39
2023/04/15 12:53:34;;;;;;;;;;;;;;;;;;5111720;28;1799;-39
2023/04/15 12:56:01;;;;;;;;;;;;;;;;;;5111443;28;1636;-39
2023/04/15 12:58:28;;;;;;;;;;;;;;;;;;5111755;28;1982;-39
2023/04/15 13:00:56;;;;;;;;;;;;;;;;;;5111695;28;1801;-39
2023/04/15 13:03:23;;;;;;;;;;;;;;;;;;5111566;28;1922;-39
2023/04/15 13:05:51;;;;;;;;;;;;;;;;;;5111868;28;1717;-38
2023/04/15 13:08:22;;;;;;;;;;;;;;;;;;5111322;28;1890;-40
2023/04/15 13:10:49;;;;;;;;;;;;;;;;;;5111504;28;1788;-39
2023/04/15 13:13:17;;;;;;;;;;;;;;;;;;5111561;28;1606;-39
2023/04/15 13:15:44;;;;;;;;;;;;;;;;;;5111612;28;2145;-39
2023/04/15 13:18:12;;;;;;;;;;;;;;;;;;5111475;28;1999;-39
2023/04/15 13:20:39;;;;;;;;;;;;;;;;;;5111370;28;1696;-40
2023/04/15 13:23:07;;;;;;;;;;;;;;;;;;5115193;28;1995;-39
2023/04/15 13:25:34;;;;;;;;;;;;;;;;;;5115596;28;1736;-51
2023/04/15 13:28:01;;;;;;;;;;;;;;;;;;5115652;28;1942;-39
2023/04/15 13:30:30;;;;;;;;;;;;;;;;;;5115568;28;1612;-39
2023/04/15 13:32:57;;;;;;;;;;;;;;;;;;5115427;28;2214;-40
2023/04/15 13:35:25;;;;;;;;;;;;;;;;;;5115535;28;1997;-39
2023/04/15 13:37:53;;;;;;;;;;;;;;;;;;5115512;28;1952;-39
2023/04/15 13:40:20;;;;;;;;;;;;;;;;;;5115380;28;1977;-39
2023/04/15 13:42:47;;;;;;;;;;;;;;;;;;5115204;27;2192;-39
2023/04/15 13:45:15;;;;;;;;;;;;;;;;;;5115255;28;1840;-39
2023/04/15 13:47:42;;;;;;;;;;;;;;;;;;5120902;27;1940;-39
2023/04/15 13:50:09;;;;;;;;;;;;;;;;;;5115151;28;1461;-41
2023/04/15 13:52:37;;;;;;;;;;;;;;;;;;5114993;28;1887;-39
2023/04/15 13:55:04;;;;;;;;;;;;;;;;;;5115168;28;1858;-39
2023/04/15 13:57:33;;;;;;;;;;;;;;;;;;5114959;28;2112;-39
2023/04/15 14:00:00;;;;;;;;;;;;;;;;;;5115027;28;1989;-39
2023/04/15 14:02:27;;;;;;;;;;;;;;;;;;5113954;28;1894;-38
2023/04/15 14:04:54;;;;;;;;;;;;;;;;;;5114800;28;1857;-40
2023/04/15 14:07:22;;;;;;;;;;;;;;;;;;5114849;28;2079;-39
2023/04/15 14:09:49;;;;;;;;;;;;;;;;;;5114768;27;2183;-39
2023/04/15 14:12:16;;;;;;;;;;;;;;;;;;5114696;28;1684;-39
2023/04/15 14:14:43;;;;;;;;;;;;;;;;;;5114620;28;1510;-39
2023/04/15 14:17:13;;;;;;;;;;;;;;;;;;5114469;28;2184;-40
2023/04/15 14:19:40;;;;;;;;;;;;;;;;;;5114830;28;1788;-39
2023/04/15 14:22:07;;;;;;;;;;;;;;;;;;5114498;28;1976;-39
2023/04/15 14:24:34;;;;;;;;;;;;;;;;;;5114539;28;2207;-39
2023/04/15 14:27:02;;;;;;;;;;;;;;;;;;5114347;28;1924;-39
2023/04/15 14:29:29;;;;;;;;;;;;;;;;;;5114646;28;1705;-39
2023/04/15 14:31:57;;;;;;;;;;;;;;;;;;5114467;28;2440;-39
2023/04/15 14:34:36;;;;;;;;;;;;;;;;;;5113505;28;1983;-43
2023/04/15 14:37:04;;;;;;;;;;;;;;;;;;5114367;28;1906;-40
2023/04/15 14:39:31;;;;;;;;;;;;;;;;;;5114288;28;2160;-40
2023/04/15 14:41:58;;;;;;;;;;;;;;;;;;5114386;28;1794;-40
2023/04/15 14:44:25;;;;;;;;;;;;;;;;;;5113857;28;1902;-39
2023/04/15 14:46:53;;;;;;;;;;;;;;;;;;5117059;27;1779;-40
2023/04/15 14:49:20;;;;;;;;;;;;;;;;;;5134501;27;1468;-39
2023/04/15 14:51:47;;;;;;;;;;;;;;;;;;5134554;27;1557;-47
2023/04/15 14:54:15;;;;;;;;;;;;;;;;;;5134441;27;1710;-46
2023/04/15 14:56:42;;;;;;;;;;;;;;;;;;5134472;27;2016;-46
2023/04/15 14:59:09;;;;;;;;;;;;;;;;;;5134502;27;1937;-40
2023/04/15 15:01:36;;;;;;;;;;;;;;;;;;5134420;27;1801;-39
2023/04/15 15:04:04;;;;;;;;;;;;;;;;;;5134096;27;1979;-39
2023/04/15 15:06:31;;;;;;;;;;;;;;;;;;5134581;27;1950;-41
2023/04/15 15:09:00;;;;;;;;;;;;;;;;;;5134235;27;2100;-39
2023/04/15 15:11:28;;;;;;;;;;;;;;;;;;5134046;27;1739;-38
2023/04/15 15:13:57;;;;;;;;;;;;;;;;;;5134042;27;1861;-40
2023/04/15 15:16:25;;;;;;;;;;;;;;;;;;5133942;27;1994;-39
2023/04/15 15:18:52;;;;;;;;;;;;;;;;;;5133976;27;1656;-39
2023/04/15 15:21:19;;;;;;;;;;;;;;;;;;5134040;27;1779;-44
2023/04/15 15:23:47;;;;;;;;;;;;;;;;;;5134031;27;1904;-39
2023/04/15 15:26:14;;;;;;;;;;;;;;;;;;5133870;27;1650;-44
2023/04/15 15:28:41;;;;;;;;;;;;;;;;;;5133884;27;2010;-39
2023/04/15 15:31:09;;;;;;;;;;;;;;;;;;5133756;27;1934;-44
2023/04/15 15:33:36;;;;;;;;;;;;;;;;;;5133652;27;1843;-39
2023/04/15 15:36:03;;;;;;;;;;;;;;;;;;5133897;27;2122;-39
2023/04/15 15:38:30;;;;;;;;;;;;;;;;;;5133791;27;1534;-39
2023/04/15 15:40:57;;;;;;;;;;;;;;;;;;5133530;27;1816;-39
2023/04/15 15:43:24;;;;;;;;;;;;;;;;;;5133466;27;1915;-39
2023/04/15 15:45:54;;;;;;;;;;;;;;;;;;5133085;27;2019;-40
2023/04/15 15:48:25;;;;;;;;;;;;;;;;;;5116038;27;1940;-44
2023/04/15 15:50:53;;;;;;;;;;;;;;;;;;5112678;28;1842;-39
2023/04/15 15:53:23;;;;;;;;;;;;;;;;;;5112664;28;2053;-45
2023/04/15 15:55:50;;;;;;;;;;;;;;;;;;5113029;28;1320;-42
2023/04/15 15:58:19;;;;;;;;;;;;;;;;;;5112705;28;2338;-38
2023/04/15 16:00:46;;;;;;;;;;;;;;;;;;5112817;28;1630;-39
2023/04/15 16:03:14;;;;;;;;;;;;;;;;;;5112444;28;1922;-38
2023/04/15 16:05:41;;;;;;;;;;;;;;;;;;5111669;28;4553;-39
2023/04/15 16:08:08;;;;;;;;;;;;;;;;;;5109319;28;9518;-39
2023/04/15 16:10:36;;;;;;;;;;;;;;;;;;5112761;28;1947;-40
2023/04/15 16:13:04;;;;;;;;;;;;;;;;;;5112591;28;2149;-40
2023/04/15 16:15:31;;;;;;;;;;;;;;;;;;5112263;28;1540;-39
2023/04/15 16:17:58;;;;;;;;;;;;;;;;;;5112322;28;1924;-39
2023/04/15 16:20:27;;;;;;;;;;;;;;;;;;5112159;28;1699;-39
2023/04/15 16:22:57;;;;;;;;;;;;;;;;;;5112046;28;1972;-40
2023/04/15 16:25:25;;;;;;;;;;;;;;;;;;5112287;28;1745;-38
2023/04/15 16:27:52;;;;;;;;;;;;;;;;;;5093725;28;2561;-39
2023/04/15 16:30:27;;;;;;;;;;;;;;;;;;5112017;28;1920;-39
2023/04/15 16:32:55;;;;;;;;;;;;;;;;;;5111760;28;1284;-39
2023/04/15 16:35:22;;;;;;;;;;;;;;;;;;5111497;28;2005;-38
2023/04/15 16:37:49;;;;;;;;;;;;;;;;;;5111523;28;1809;-40
2023/04/15 16:40:16;;;;;;;;;;;;;;;;;;5092305;28;1941;-40
2023/04/15 16:42:44;;;;;;;;;;;;;;;;;;5110887;28;1910;-38
2023/04/15 16:45:11;;;;;;;;;;;;;;;;;;5111737;28;1454;-39
2023/04/15 16:47:38;;;;;;;;;;;;;;;;;;5122669;27;2115;-40
2023/04/15 16:50:06;;;;;;;;;;;;;;;;;;5132436;27;2239;-38
2023/04/15 16:52:33;;;;;;;;;;;;;;;;;;5132124;27;1490;-40
2023/04/15 16:55:01;;;;;;;;;;;;;;;;;;5132113;27;2254;-40
2023/04/15 16:57:28;;;;;;;;;;;;;;;;;;5131277;27;1433;-40
2023/04/15 17:00:02;;;;;;;;;;;;;;;;;;5131325;27;2084;-39
2023/04/15 17:02:30;;;;;;;;;;;;;;;;;;5132158;27;1630;-43
2023/04/15 17:04:57;;;;;;;;;;;;;;;;;;5132099;27;2360;-40
2023/04/15 17:07:24;;;;;;;;;;;;;;;;;;5131932;27;1957;-45
2023/04/15 17:09:51;;;;;;;;;;;;;;;;;;5131970;27;1654;-40
2023/04/15 17:12:20;;;;;;;;;;;;;;;;;;5131839;28;1989;-42